createdAt,value
2019-02-24T00:01:34.798Z,4.36
2019-02-24T00:04:48.616Z,4.32
2019-02-24T00:08:03.056Z,4.34
2019-02-24T00:11:16.912Z,4.33
2019-02-24T00:14:30.743Z,4.38
2019-02-24T00:17:44.587Z,4.32
2019-02-24T00:20:58.487Z,4.37
2019-02-24T00:24:12.335Z,4.42
2019-02-24T00:27:26.202Z,4.42
2019-02-24T00:30:40.155Z,4.35
2019-02-24T00:33:54.007Z,4.31
2019-02-24T00:37:07.884Z,4.36
2019-02-24T00:40:21.706Z,4.35
2019-02-24T00:43:35.557Z,4.31
2019-02-24T00:46:49.440Z,4.27
2019-02-24T00:50:06.177Z,4.32
2019-02-24T00:53:20.035Z,4.34
2019-02-24T00:56:33.865Z,4.28
2019-02-24T00:59:47.710Z,4.28
2019-02-24T01:03:01.585Z,4.18
2019-02-24T01:06:15.526Z,4.09
2019-02-24T01:09:29.483Z,4.11
2019-02-24T01:12:43.611Z,4.08
2019-02-24T01:15:57.420Z,4.05
2019-02-24T01:19:11.296Z,4.07
2019-02-24T01:22:25.112Z,3.95
2019-02-24T01:25:39.113Z,3.94
2019-02-24T01:28:52.963Z,3.98
2019-02-24T01:32:06.784Z,3.92
2019-02-24T01:35:20.741Z,3.93
2019-02-24T01:38:34.587Z,3.92
2019-02-24T01:41:48.422Z,3.98
2019-02-24T01:45:03.774Z,3.92
2019-02-24T01:48:17.619Z,3.96
2019-02-24T01:51:31.472Z,3.98
2019-02-24T01:54:45.336Z,3.93
2019-02-24T01:57:59.166Z,3.97
2019-02-24T02:01:13.122Z,4.08
2019-02-24T02:04:26.961Z,4.09
2019-02-24T02:07:40.792Z,4.16
2019-02-24T02:10:54.620Z,4.25
2019-02-24T02:14:08.474Z,4.19
2019-02-24T02:17:22.293Z,4.21
2019-02-24T02:20:36.270Z,4.24
2019-02-24T02:23:50.087Z,4.21
2019-02-24T02:27:03.954Z,4.28
2019-02-24T02:30:17.915Z,4.29
2019-02-24T02:33:31.724Z,4.26
2019-02-24T02:36:45.583Z,4.35
2019-02-24T02:39:59.522Z,4.29
2019-02-24T02:43:13.357Z,4.28
2019-02-24T02:46:27.255Z,4.25
2019-02-24T02:49:41.143Z,4.29
2019-02-24T02:52:54.968Z,4.27
2019-02-24T02:56:08.841Z,4.19
2019-02-24T02:59:22.801Z,4.13
2019-02-24T03:02:36.760Z,4.16
2019-02-24T03:05:55.440Z,4.08
2019-02-24T03:09:10.283Z,4.01
2019-02-24T03:12:24.121Z,3.92
2019-02-24T03:15:38.054Z,4.07
2019-02-24T03:18:51.913Z,4.01
2019-02-24T03:22:05.820Z,3.96
2019-02-24T03:25:19.653Z,3.91
2019-02-24T03:28:33.487Z,3.89
2019-02-24T03:31:47.320Z,3.83
2019-02-24T03:35:01.172Z,3.81
2019-02-24T03:38:15.007Z,3.80
2019-02-24T03:41:28.845Z,3.81
2019-02-24T03:44:42.673Z,3.79
2019-02-24T03:47:56.526Z,3.67
2019-02-24T03:51:10.341Z,3.70
2019-02-24T03:54:24.182Z,3.59
2019-02-24T03:57:38.095Z,3.52
2019-02-24T04:00:51.944Z,3.42
2019-02-24T04:04:05.996Z,3.29
2019-02-24T04:07:19.858Z,3.26
2019-02-24T04:10:33.691Z,3.23
2019-02-24T04:13:47.655Z,3.26
2019-02-24T04:17:01.473Z,3.25
2019-02-24T04:20:15.321Z,3.17
2019-02-24T04:23:29.159Z,3.07
2019-02-24T04:26:43.045Z,2.99
2019-02-24T04:29:56.893Z,3.00
2019-02-24T04:33:10.734Z,2.98
2019-02-24T04:36:24.597Z,2.98
2019-02-24T04:39:38.424Z,2.94
2019-02-24T04:42:52.260Z,2.89
2019-02-24T04:46:06.487Z,2.90
2019-02-24T04:49:20.312Z,2.88
2019-02-24T04:52:34.157Z,2.85
2019-02-24T04:55:47.992Z,2.79
2019-02-24T04:59:01.830Z,2.66
2019-02-24T05:02:15.680Z,2.66
2019-02-24T05:05:29.526Z,2.59
2019-02-24T05:08:43.365Z,2.45
2019-02-24T05:11:57.196Z,2.37
2019-02-24T05:15:11.037Z,2.33
2019-02-24T05:18:24.894Z,2.27
2019-02-24T05:21:38.745Z,2.24
2019-02-24T05:24:53.043Z,2.28
2019-02-24T05:28:06.886Z,2.27
2019-02-24T05:31:20.716Z,2.26
2019-02-24T05:34:34.612Z,2.26
2019-02-24T05:37:48.455Z,2.20
2019-02-24T05:41:02.286Z,2.13
2019-02-24T05:44:16.140Z,2.07
2019-02-24T05:47:29.990Z,2.10
2019-02-24T05:50:43.795Z,2.08
2019-02-24T05:53:57.643Z,2.03
2019-02-24T05:57:11.475Z,2.04
2019-02-24T06:00:25.382Z,2.00
2019-02-24T06:03:39.226Z,1.97
2019-02-24T06:06:53.048Z,1.96
2019-02-24T06:10:07.004Z,1.95
2019-02-24T06:13:20.847Z,1.96
2019-02-24T06:16:34.684Z,1.95
2019-02-24T06:19:48.519Z,2.06
2019-02-24T06:23:02.392Z,2.13
2019-02-24T06:26:16.350Z,2.10
2019-02-24T06:29:30.195Z,2.17
2019-02-24T06:32:44.021Z,2.21
2019-02-24T06:35:57.883Z,2.21
2019-02-24T06:39:11.721Z,2.24
2019-02-24T06:42:25.570Z,2.33
2019-02-24T06:45:39.434Z,2.47
2019-02-24T06:48:53.369Z,2.54
2019-02-24T06:52:07.220Z,2.62
2019-02-24T06:55:21.065Z,2.69
2019-02-24T06:58:34.885Z,2.80
2019-02-24T07:01:48.752Z,2.90
2019-02-24T07:05:05.376Z,2.99
2019-02-24T07:08:19.250Z,3.10
2019-02-24T07:11:33.105Z,3.23
2019-02-24T07:14:46.956Z,3.33
2019-02-24T07:18:01.093Z,3.40
2019-02-24T07:21:15.052Z,3.59
2019-02-24T07:24:28.892Z,3.77
2019-02-24T07:27:43.268Z,3.94
2019-02-24T07:30:57.078Z,4.06
2019-02-24T07:34:10.934Z,4.10
2019-02-24T07:37:24.902Z,4.22
2019-02-24T07:40:38.709Z,4.31
2019-02-24T07:43:52.567Z,4.41
2019-02-24T07:47:06.452Z,4.49
2019-02-24T07:50:20.331Z,4.80
2019-02-24T07:53:34.191Z,4.80
2019-02-24T07:56:48.135Z,4.93
2019-02-24T08:00:02.496Z,5.03
2019-02-24T08:03:16.348Z,5.11
2019-02-24T08:06:30.180Z,5.58
2019-02-24T08:09:44.200Z,5.58
2019-02-24T08:12:58.053Z,5.74
2019-02-24T08:16:11.899Z,5.77
2019-02-24T08:19:25.731Z,5.88
2019-02-24T08:22:39.621Z,5.99
2019-02-24T08:25:53.508Z,6.12
2019-02-24T08:29:07.400Z,6.26
2019-02-24T08:32:21.221Z,6.31
2019-02-24T08:35:35.069Z,6.44
2019-02-24T08:38:48.931Z,6.53
2019-02-24T08:42:02.751Z,6.65
2019-02-24T08:45:16.727Z,6.78
2019-02-24T08:48:30.549Z,6.85
2019-02-24T08:51:44.413Z,7.08
2019-02-24T08:54:58.575Z,7.19
2019-02-24T08:58:12.504Z,7.19
2019-02-24T09:01:26.364Z,7.49
2019-02-24T09:04:40.313Z,7.59
2019-02-24T09:07:54.153Z,7.79
2019-02-24T09:11:08.066Z,7.86
2019-02-24T09:14:21.893Z,7.95
2019-02-24T09:17:35.750Z,8.06
2019-02-24T09:20:49.616Z,8.28
2019-02-24T09:24:03.587Z,8.33
2019-02-24T09:27:17.458Z,8.53
2019-02-24T09:30:31.309Z,8.63
2019-02-24T09:33:45.240Z,8.62
2019-02-24T09:36:59.091Z,8.70
2019-02-24T09:40:13.138Z,8.89
2019-02-24T09:43:27.015Z,9.11
2019-02-24T09:46:40.909Z,9.18
2019-02-24T09:49:54.741Z,9.40
2019-02-24T09:53:08.594Z,9.45
2019-02-24T09:56:22.485Z,9.51
2019-02-24T09:59:36.297Z,9.65
2019-02-24T10:02:50.192Z,9.92
2019-02-24T10:06:04.220Z,10.21
2019-02-24T10:09:18.330Z,10.61
2019-02-24T10:12:32.474Z,10.96
2019-02-24T10:15:46.319Z,11.50
2019-02-24T10:19:00.280Z,12.09
2019-02-24T10:22:14.189Z,12.90
2019-02-24T10:25:28.189Z,13.85
2019-02-24T10:28:42.041Z,15.62
2019-02-24T10:31:55.972Z,16.68
2019-02-24T10:35:09.920Z,17.80
2019-02-24T10:38:23.791Z,18.22
2019-02-24T10:41:37.658Z,19.10
2019-02-24T10:44:51.596Z,19.71
2019-02-24T10:48:13.778Z,20.41
2019-02-24T10:51:21.256Z,20.49
2019-02-24T10:54:35.099Z,19.73
2019-02-24T10:57:48.948Z,20.29
2019-02-24T11:01:03.728Z,21.81
2019-02-24T11:04:17.711Z,22.10
2019-02-24T11:07:31.535Z,21.06
2019-02-24T11:10:45.443Z,22.41
2019-02-24T11:13:59.386Z,23.55
2019-02-24T11:17:13.345Z,22.48
2019-02-24T11:20:27.209Z,23.26
2019-02-24T11:23:41.166Z,24.19
2019-02-24T11:26:55.012Z,23.84
2019-02-24T11:30:12.917Z,23.49
2019-02-24T11:33:26.913Z,25.75
2019-02-24T11:36:40.778Z,24.43
2019-02-24T11:39:54.639Z,25.52
2019-02-24T11:43:08.502Z,25.33
2019-02-24T11:46:22.419Z,26.70
2019-02-24T11:49:36.254Z,25.81
2019-02-24T11:52:50.251Z,26.83
2019-02-24T11:56:04.085Z,25.98
2019-02-24T11:59:18.178Z,27.12
2019-02-24T12:02:34.744Z,26.87
2019-02-24T12:05:48.033Z,27.65
2019-02-24T12:09:05.211Z,28.67
2019-02-24T12:12:17.873Z,29.54
2019-02-24T12:15:31.801Z,28.73
2019-02-24T12:18:45.672Z,28.13
2019-02-24T12:21:59.548Z,29.54
2019-02-24T12:25:13.470Z,30.03
2019-02-24T12:28:27.317Z,30.40
2019-02-24T12:31:41.157Z,30.19
2019-02-24T12:34:55.012Z,30.19
2019-02-24T12:38:08.904Z,30.46
2019-02-24T12:41:22.982Z,30.39
2019-02-24T12:44:36.953Z,31.11
2019-02-24T12:47:50.834Z,31.65
2019-02-24T12:51:04.776Z,31.66
2019-02-24T12:54:18.758Z,33.24
2019-02-24T12:57:32.599Z,34.50
2019-02-24T13:00:46.846Z,35.52
2019-02-24T13:04:00.689Z,35.99
2019-02-24T13:07:15.081Z,36.73
2019-02-24T13:10:29.253Z,37.82
2019-02-24T13:13:43.084Z,36.23
2019-02-24T13:16:57.388Z,35.03
2019-02-24T13:20:11.583Z,35.85
2019-02-24T13:23:25.425Z,36.34
2019-02-24T13:26:39.419Z,34.35
2019-02-24T13:29:53.248Z,38.03
2019-02-24T13:33:08.765Z,37.59
2019-02-24T13:36:22.616Z,38.23
2019-02-24T13:39:36.483Z,38.44
2019-02-24T13:42:50.317Z,40.70
2019-02-24T13:46:04.284Z,38.56
2019-02-24T13:49:18.146Z,36.74
2019-02-24T13:52:32.032Z,40.21
2019-02-24T13:55:45.926Z,38.45
2019-02-24T13:58:59.870Z,40.10
2019-02-24T14:02:13.737Z,40.12
2019-02-24T14:05:27.568Z,40.87
2019-02-24T14:08:41.553Z,40.70
2019-02-24T14:11:55.433Z,40.45
2019-02-24T14:15:13.249Z,40.08
2019-02-24T14:18:27.089Z,40.64
2019-02-24T14:21:40.943Z,40.13
2019-02-24T14:24:54.804Z,38.42
2019-02-24T14:28:10.000Z,39.94
2019-02-24T14:31:23.828Z,41.50
2019-02-24T14:34:37.784Z,42.07
2019-02-24T14:37:51.629Z,43.03
2019-02-24T14:41:05.485Z,42.75
2019-02-24T14:44:19.375Z,43.80
2019-02-24T14:47:33.309Z,42.09
2019-02-24T14:50:47.194Z,41.99
2019-02-24T14:54:01.070Z,41.13
2019-02-24T14:57:14.920Z,42.24
2019-02-24T15:00:28.887Z,43.28
2019-02-24T15:03:42.791Z,43.85
2019-02-24T15:06:56.731Z,42.05
2019-02-24T15:10:16.334Z,42.53
2019-02-24T15:13:30.331Z,42.17
2019-02-24T15:16:44.160Z,41.47
2019-02-24T15:19:58.032Z,42.65
2019-02-24T15:23:11.879Z,41.02
2019-02-24T15:26:25.862Z,41.43
2019-02-24T15:29:39.738Z,41.49
2019-02-24T15:32:53.679Z,40.65
2019-02-24T15:36:07.771Z,30.62
2019-02-24T15:39:21.711Z,25.58
2019-02-24T15:42:35.553Z,24.70
2019-02-24T15:45:49.427Z,23.92
2019-02-24T15:49:03.314Z,22.74
2019-02-24T15:52:17.163Z,22.20
2019-02-24T15:55:31.179Z,21.24
2019-02-24T15:58:45.075Z,21.19
2019-02-24T16:01:58.930Z,20.75
2019-02-24T16:05:12.864Z,19.87
2019-02-24T16:08:26.727Z,19.29
2019-02-24T16:11:40.592Z,18.78
2019-02-24T16:14:56.471Z,18.94
2019-02-24T16:18:10.469Z,18.40
2019-02-24T16:21:24.359Z,18.29
2019-02-24T16:24:38.284Z,18.08
2019-02-24T16:27:53.379Z,17.69
2019-02-24T16:31:07.392Z,17.32
2019-02-24T16:34:21.340Z,17.11
2019-02-24T16:37:35.527Z,16.88
2019-02-24T16:40:49.492Z,16.55
2019-02-24T16:44:03.675Z,16.29
2019-02-24T16:47:17.593Z,16.10
2019-02-24T16:50:31.480Z,15.87
2019-02-24T16:53:45.355Z,15.52
2019-02-24T16:57:05.107Z,15.15
2019-02-24T17:00:21.713Z,14.72
2019-02-24T17:03:36.116Z,14.36
2019-02-24T17:06:49.953Z,14.15
2019-02-24T17:10:10.143Z,13.85
2019-02-24T17:13:24.033Z,13.48
2019-02-24T17:16:38.090Z,13.22
2019-02-24T17:19:52.009Z,12.92
2019-02-24T17:23:05.980Z,12.71
2019-02-24T17:26:19.876Z,12.51
2019-02-24T17:29:33.757Z,12.29
2019-02-24T17:32:47.635Z,12.10
2019-02-24T17:36:01.575Z,11.91
2019-02-24T17:39:15.549Z,11.71
2019-02-24T17:42:29.410Z,11.60
2019-02-24T17:45:44.877Z,11.44
2019-02-24T17:48:59.226Z,11.25
2019-02-24T17:52:13.109Z,11.01
2019-02-24T17:55:27.077Z,10.77
2019-02-24T17:58:41.020Z,10.69
2019-02-24T18:01:54.883Z,10.66
2019-02-24T18:05:08.754Z,10.51
2019-02-24T18:08:28.281Z,10.41
2019-02-24T18:11:38.977Z,10.32
2019-02-24T18:14:52.811Z,10.22
2019-02-24T18:18:06.784Z,10.17
2019-02-24T18:21:20.693Z,10.04
2019-02-24T18:24:34.586Z,9.85
2019-02-24T18:27:48.588Z,9.68
2019-02-24T18:31:02.523Z,9.52
2019-02-24T18:34:16.519Z,9.42
2019-02-24T18:37:30.382Z,9.30
2019-02-24T18:40:44.351Z,9.20
2019-02-24T18:43:58.248Z,9.11
2019-02-24T18:47:12.333Z,9.08
2019-02-24T18:50:26.264Z,9.01
2019-02-24T18:53:40.151Z,8.95
2019-02-24T18:56:54.003Z,8.90
2019-02-24T19:00:17.133Z,8.86
2019-02-24T19:03:31.015Z,8.73
2019-02-24T19:06:44.883Z,8.65
2019-02-24T19:09:58.793Z,8.63
2019-02-24T19:13:12.771Z,8.59
2019-02-24T19:16:26.848Z,8.57
2019-02-24T19:19:40.744Z,8.59
2019-02-24T19:22:54.707Z,8.51
2019-02-24T19:26:08.910Z,8.48
2019-02-24T19:29:22.898Z,8.38
2019-02-24T19:32:36.766Z,8.31
2019-02-24T19:35:50.792Z,8.22
2019-02-24T19:39:05.562Z,8.08
2019-02-24T19:42:19.548Z,7.98
2019-02-24T19:45:33.535Z,7.92
2019-02-24T19:48:47.445Z,7.86
2019-02-24T19:52:01.345Z,7.78
2019-02-24T19:55:16.533Z,7.67
2019-02-24T19:58:30.508Z,7.56
2019-02-24T20:01:44.392Z,7.50
2019-02-24T20:04:58.334Z,7.44
2019-02-24T20:08:12.290Z,7.38
2019-02-24T20:11:26.174Z,7.31
2019-02-24T20:14:41.451Z,7.31
2019-02-24T20:17:55.327Z,7.32
2019-02-24T20:21:09.346Z,7.21
2019-02-24T20:24:23.285Z,7.10
2019-02-24T20:27:37.223Z,7.07
2019-02-24T20:30:51.194Z,7.09
2019-02-24T20:34:05.179Z,7.04
2019-02-24T20:37:19.258Z,7.01
2019-02-24T20:40:33.113Z,6.92
2019-02-24T20:43:47.072Z,6.85
2019-02-24T20:47:02.256Z,6.79
2019-02-24T20:50:25.172Z,6.70
2019-02-24T20:53:39.057Z,6.66
2019-02-24T20:56:53.030Z,6.54
2019-02-24T21:00:16.707Z,6.47
2019-02-24T21:03:30.801Z,6.38
2019-02-24T21:06:44.665Z,6.33
2019-02-24T21:09:58.532Z,6.29
2019-02-24T21:13:12.395Z,6.26
2019-02-24T21:16:26.477Z,6.17
2019-02-24T21:19:40.335Z,6.09
2019-02-24T21:22:54.377Z,6.10
2019-02-24T21:26:08.301Z,6.10
2019-02-24T21:29:22.288Z,6.06
2019-02-24T21:32:36.213Z,6.02
2019-02-24T21:35:50.069Z,6.06
2019-02-24T21:39:04.575Z,5.97
2019-02-24T21:42:18.444Z,5.97
2019-02-24T21:45:32.416Z,5.92
2019-02-24T21:48:46.568Z,5.87
2019-02-24T21:52:00.404Z,5.76
2019-02-24T21:55:14.700Z,5.79
2019-02-24T21:58:28.513Z,5.78
2019-02-24T22:01:42.375Z,5.76
2019-02-24T22:04:56.340Z,5.74
2019-02-24T22:08:10.187Z,5.65
2019-02-24T22:11:24.166Z,5.59
2019-02-24T22:14:38.020Z,5.55
2019-02-24T22:17:51.933Z,5.52
2019-02-24T22:21:05.800Z,5.50
2019-02-24T22:24:19.609Z,5.49
2019-02-24T22:27:33.493Z,5.48
2019-02-24T22:30:47.441Z,5.44
2019-02-24T22:34:01.301Z,5.40
2019-02-24T22:37:15.248Z,5.36
2019-02-24T22:40:29.237Z,5.35
2019-02-24T22:43:43.072Z,5.29
2019-02-24T22:46:57.368Z,5.29
2019-02-24T22:50:12.334Z,5.19
2019-02-24T22:53:26.181Z,5.14
2019-02-24T22:56:40.038Z,5.11
2019-02-24T22:59:53.856Z,5.01
2019-02-24T23:03:07.818Z,4.96
2019-02-24T23:06:21.795Z,4.94
2019-02-24T23:09:35.658Z,4.85
2019-02-24T23:12:49.515Z,4.83
2019-02-24T23:16:03.449Z,4.80
2019-02-24T23:19:17.310Z,4.72
2019-02-24T23:22:31.185Z,4.66
2019-02-24T23:25:45.159Z,4.66
2019-02-24T23:28:59.396Z,4.60
2019-02-24T23:32:13.326Z,4.53
2019-02-24T23:35:27.344Z,4.53
2019-02-24T23:38:41.197Z,4.47
2019-02-24T23:41:55.011Z,4.39
2019-02-24T23:45:11.366Z,4.29
2019-02-24T23:48:25.323Z,4.28
2019-02-24T23:51:39.146Z,4.27
2019-02-24T23:54:53.115Z,4.25
2019-02-24T23:58:06.931Z,4.22
